sensor_id;sensor_type;location;lat;lon;timestamp;P1;durP1;ratioP1;P2;durP2;ratioP2
75914;SDS011;64593;51.050;13.780;2023-04-15T06:01:01;4.65;;;3.08;;
75914;SDS011;64593;51.050;13.780;2023-04-15T06:06:05;5.53;;;2.45;;
75914;SDS011;64593;51.050;13.780;2023-04-15T06:11:10;4.20;;;2.75;;
75914;SDS011;64593;51.050;13.780;2023-04-15T06:16:12;2.95;;;1.70;;
75914;SDS011;64593;51.050;13.780;2023-04-15T06:21:14;3.33;;;1.70;;
75914;SDS011;64593;51.050;13.780;2023-04-15T06:26:17;2.40;;;1.40;;
75914;SDS011;64593;51.050;13.780;2023-04-15T06:31:19;3.40;;;1.52;;
75914;SDS011;64593;51.050;13.780;2023-04-15T06:36:47;2.72;;;1.45;;
75914;SDS011;64593;51.050;13.780;2023-04-15T06:41:49;2.67;;;1.45;;
75914;SDS011;64593;51.050;13.780;2023-04-15T06:46:54;1.98;;;0.90;;
75914;SDS011;64593;51.050;13.780;2023-04-15T06:51:57;2.35;;;0.98;;
75914;SDS011;64593;51.050;13.780;2023-04-15T06:56:58;2.03;;;0.90;;
75914;SDS011;64593;51.050;13.780;2023-04-15T07:02:02;1.85;;;1.00;;
75914;SDS011;64593;51.050;13.780;2023-04-15T07:07:28;1.38;;;0.60;;
75914;SDS011;64593;51.050;13.780;2023-04-15T07:12:29;1.50;;;0.70;;
75914;SDS011;64593;51.050;13.780;2023-04-15T07:22:35;1.40;;;0.80;;
75914;SDS011;64593;51.050;13.780;2023-04-15T07:27:37;1.60;;;0.77;;
75914;SDS011;64593;51.050;13.780;2023-04-15T07:37:42;2.92;;;0.98;;
75914;SDS011;64593;51.050;13.780;2023-04-15T07:42:44;1.92;;;0.80;;
75914;SDS011;64593;51.050;13.780;2023-04-15T07:47:48;1.73;;;0.80;;
75914;SDS011;64593;51.050;13.780;2023-04-15T07:52:51;1.48;;;0.70;;
75914;SDS011;64593;51.050;13.780;2023-04-15T07:57:53;1.23;;;0.50;;
75914;SDS011;64593;51.050;13.780;2023-04-15T08:02:55;1.70;;;0.43;;
75914;SDS011;64593;51.050;13.780;2023-04-15T08:07:59;1.77;;;0.60;;
75914;SDS011;64593;51.050;13.780;2023-04-15T08:13:01;0.50;;;0.20;;
75914;SDS011;64593;51.050;13.780;2023-04-15T08:18:03;1.10;;;0.47;;
75914;SDS011;64593;51.050;13.780;2023-04-15T08:23:07;2.05;;;0.77;;
75914;SDS011;64593;51.050;13.780;2023-04-15T08:28:09;2.15;;;0.50;;
75914;SDS011;64593;51.050;13.780;2023-04-15T08:33:11;2.08;;;1.00;;
75914;SDS011;64593;51.050;13.780;2023-04-15T08:38:12;3.00;;;1.00;;
75914;SDS011;64593;51.050;13.780;2023-04-15T08:43:20;2.58;;;1.20;;
75914;SDS011;64593;51.050;13.780;2023-04-15T08:48:33;0.60;;;0.38;;
75914;SDS011;64593;51.050;13.780;2023-04-15T08:53:44;2.15;;;1.33;;
75914;SDS011;64593;51.050;13.780;2023-04-15T08:58:49;5.05;;;2.60;;
75914;SDS011;64593;51.050;13.780;2023-04-15T09:03:55;7.43;;;3.35;;
75914;SDS011;64593;51.050;13.780;2023-04-15T09:09:03;3.33;;;2.22;;
75914;SDS011;64593;51.050;13.780;2023-04-15T09:14:08;4.57;;;3.17;;
75914;SDS011;64593;51.050;13.780;2023-04-15T09:19:22;3.08;;;2.38;;
75914;SDS011;64593;51.050;13.780;2023-04-15T09:24:24;7.25;;;2.33;;
75914;SDS011;64593;51.050;13.780;2023-04-15T09:29:33;3.50;;;1.92;;
75914;SDS011;64593;51.050;13.780;2023-04-15T09:34:40;3.40;;;1.25;;
75914;SDS011;64593;51.050;13.780;2023-04-15T09:39:46;3.72;;;2.28;;
75914;SDS011;64593;51.050;13.780;2023-04-15T09:44:49;3.72;;;2.55;;
75914;SDS011;64593;51.050;13.780;2023-04-15T09:49:59;2.47;;;1.65;;
75914;SDS011;64593;51.050;13.780;2023-04-15T09:55:02;3.83;;;1.90;;
75914;SDS011;64593;51.050;13.780;2023-04-15T10:00:05;3.35;;;1.95;;
75914;SDS011;64593;51.050;13.780;2023-04-15T10:05:33;3.13;;;1.92;;
75914;SDS011;64593;51.050;13.780;2023-04-15T10:10:40;2.60;;;1.23;;
75914;SDS011;64593;51.050;13.780;2023-04-15T10:15:43;3.70;;;1.77;;
75914;SDS011;64593;51.050;13.780;2023-04-15T10:20:47;2.55;;;1.42;;
75914;SDS011;64593;51.050;13.780;2023-04-15T10:25:50;2.28;;;1.85;;
75914;SDS011;64593;51.050;13.780;2023-04-15T10:30:53;2.03;;;1.33;;
75914;SDS011;64593;51.050;13.780;2023-04-15T10:35:55;4.85;;;2.05;;
75914;SDS011;64593;51.050;13.780;2023-04-15T10:41:13;5.82;;;2.30;;
75914;SDS011;64593;51.050;13.780;2023-04-15T10:46:21;2.70;;;1.77;;
75914;SDS011;64593;51.050;13.780;2023-04-15T10:51:50;3.22;;;1.98;;
75914;SDS011;64593;51.050;13.780;2023-04-15T11:02:11;2.90;;;1.67;;
75914;SDS011;64593;51.050;13.780;2023-04-15T11:12:46;3.58;;;2.33;;
75914;SDS011;64593;51.050;13.780;2023-04-15T11:17:57;2.90;;;1.83;;
75914;SDS011;64593;51.050;13.780;2023-04-15T11:23:10;3.55;;;2.00;;
75914;SDS011;64593;51.050;13.780;2023-04-15T11:28:40;2.92;;;1.35;;
75914;SDS011;64593;51.050;13.780;2023-04-15T11:33:46;2.10;;;1.02;;
75914;SDS011;64593;51.050;13.780;2023-04-15T11:39:21;2.20;;;1.45;;
75914;SDS011;64593;51.050;13.780;2023-04-15T11:44:48;3.35;;;1.70;;
75914;SDS011;64593;51.050;13.780;2023-04-15T11:49:49;2.05;;;1.25;;
75914;SDS011;64593;51.050;13.780;2023-04-15T11:55:02;2.17;;;1.23;;
75914;SDS011;64593;51.050;13.780;2023-04-15T12:00:04;1.83;;;0.90;;
75914;SDS011;64593;51.050;13.780;2023-04-15T12:05:32;2.08;;;0.60;;
75914;SDS011;64593;51.050;13.780;2023-04-15T12:10:33;1.40;;;0.82;;
75914;SDS011;64593;51.050;13.780;2023-04-15T12:15:38;1.60;;;0.90;;
75914;SDS011;64593;51.050;13.780;2023-04-15T12:20:43;1.38;;;0.70;;
75914;SDS011;64593;51.050;13.780;2023-04-15T12:25:50;1.80;;;1.00;;
75914;SDS011;64593;51.050;13.780;2023-04-15T12:31:17;2.25;;;1.10;;
75914;SDS011;64593;51.050;13.780;2023-04-15T12:36:45;2.47;;;1.40;;
75914;SDS011;64593;51.050;13.780;2023-04-15T12:42:13;0.57;;;0.30;;
75914;SDS011;64593;51.050;13.780;2023-04-15T12:47:15;1.92;;;1.05;;
75914;SDS011;64593;51.050;13.780;2023-04-15T12:52:42;1.83;;;0.73;;
75914;SDS011;64593;51.050;13.780;2023-04-15T12:58:09;3.72;;;1.08;;
75914;SDS011;64593;51.050;13.780;2023-04-15T13:03:12;2.50;;;0.80;;
75914;SDS011;64593;51.050;13.780;2023-04-15T13:08:41;0.45;;;0.25;;
75914;SDS011;64593;51.050;13.780;2023-04-15T13:14:16;2.20;;;0.88;;
75914;SDS011;64593;51.050;13.780;2023-04-15T13:19:18;1.15;;;0.57;;
75914;SDS011;64593;51.050;13.780;2023-04-15T13:24:20;1.73;;;0.98;;
75914;SDS011;64593;51.050;13.780;2023-04-15T13:29:46;1.08;;;0.55;;
75914;SDS011;64593;51.050;13.780;2023-04-15T13:35:16;3.03;;;1.20;;
75914;SDS011;64593;51.050;13.780;2023-04-15T13:40:42;3.50;;;1.98;;
75914;SDS011;64593;51.050;13.780;2023-04-15T13:45:45;2.65;;;1.15;;
75914;SDS011;64593;51.050;13.780;2023-04-15T13:50:47;2.65;;;0.95;;
75914;SDS011;64593;51.050;13.780;2023-04-15T13:55:48;2.58;;;1.13;;
75914;SDS011;64593;51.050;13.780;2023-04-15T14:01:15;2.53;;;1.23;;
75914;SDS011;64593;51.050;13.780;2023-04-15T14:06:17;2.28;;;1.10;;
75914;SDS011;64593;51.050;13.780;2023-04-15T14:11:19;2.17;;;1.08;;
75914;SDS011;64593;51.050;13.780;2023-04-15T14:16:20;2.25;;;1.17;;
75914;SDS011;64593;51.050;13.780;2023-04-15T14:21:22;2.25;;;1.20;;
75914;SDS011;64593;51.050;13.780;2023-04-15T14:26:24;2.70;;;1.20;;
75914;SDS011;64593;51.050;13.780;2023-04-15T14:31:26;2.88;;;1.20;;
75914;SDS011;64593;51.050;13.780;2023-04-15T14:36:52;1.85;;;1.02;;
75914;SDS011;64593;51.050;13.780;2023-04-15T14:41:54;1.95;;;0.98;;
75914;SDS011;64593;51.050;13.780;2023-04-15T14:47:21;2.10;;;1.20;;
75914;SDS011;64593;51.050;13.780;2023-04-15T14:52:23;2.25;;;1.20;;
75914;SDS011;64593;51.050;13.780;2023-04-15T14:57:25;1.27;;;0.73;;
75914;SDS011;64593;51.050;13.780;2023-04-15T15:02:27;1.73;;;0.80;;
75914;SDS011;64593;51.050;13.780;2023-04-15T15:07:39;2.92;;;1.30;;
75914;SDS011;64593;51.050;13.780;2023-04-15T15:12:43;2.17;;;1.33;;
75914;SDS011;64593;51.050;13.780;2023-04-15T15:17:45;1.70;;;1.00;;
75914;SDS011;64593;51.050;13.780;2023-04-15T15:23:12;1.67;;;0.85;;
75914;SDS011;64593;51.050;13.780;2023-04-15T15:28:14;2.28;;;1.10;;
75914;SDS011;64593;51.050;13.780;2023-04-15T15:33:16;2.17;;;1.27;;
75914;SDS011;64593;51.050;13.780;2023-04-15T15:38:42;1.90;;;1.00;;
75914;SDS011;64593;51.050;13.780;2023-04-15T15:44:09;2.17;;;1.23;;
75914;SDS011;64593;51.050;13.780;2023-04-15T15:49:11;2.40;;;1.10;;
75914;SDS011;64593;51.050;13.780;2023-04-15T15:54:13;2.42;;;1.20;;
75914;SDS011;64593;51.050;13.780;2023-04-15T15:59:18;3.15;;;0.82;;
75914;SDS011;64593;51.050;13.780;2023-04-15T16:04:44;1.70;;;0.75;;
75914;SDS011;64593;51.050;13.780;2023-04-15T16:10:12;2.22;;;0.90;;
75914;SDS011;64593;51.050;13.780;2023-04-15T16:15:14;2.20;;;1.00;;
75914;SDS011;64593;51.050;13.780;2023-04-15T16:20:41;3.17;;;1.48;;
75914;SDS011;64593;51.050;13.780;2023-04-15T16:26:08;3.45;;;1.40;;
75914;SDS011;64593;51.050;13.780;2023-04-15T16:31:10;1.92;;;1.13;;
75914;SDS011;64593;51.050;13.780;2023-04-15T16:36:12;2.20;;;0.82;;
75914;SDS011;64593;51.050;13.780;2023-04-15T16:46:45;1.73;;;1.20;;
75914;SDS011;64593;51.050;13.780;2023-04-15T16:52:11;1.85;;;0.90;;
75914;SDS011;64593;51.050;13.780;2023-04-15T16:57:13;1.58;;;0.80;;
75914;SDS011;64593;51.050;13.780;2023-04-15T17:02:15;2.05;;;0.90;;
75914;SDS011;64593;51.050;13.780;2023-04-15T17:07:17;1.80;;;0.90;;
75914;SDS011;64593;51.050;13.780;2023-04-15T17:12:19;1.83;;;0.80;;
75914;SDS011;64593;51.050;13.780;2023-04-15T17:17:45;1.67;;;0.90;;
75914;SDS011;64593;51.050;13.780;2023-04-15T17:23:11;2.60;;;1.17;;
75914;SDS011;64593;51.050;13.780;2023-04-15T17:28:37;3.58;;;1.10;;
75914;SDS011;64593;51.050;13.780;2023-04-15T17:33:39;3.47;;;0.82;;
75914;SDS011;64593;51.050;13.780;2023-04-15T17:39:20;1.70;;;0.77;;
75914;SDS011;64593;51.050;13.780;2023-04-15T17:44:23;1.77;;;0.93;;
75914;SDS011;64593;51.050;13.780;2023-04-15T17:49:25;1.60;;;0.85;;
75914;SDS011;64593;51.050;13.780;2023-04-15T17:54:27;3.33;;;1.17;;
75914;SDS011;64593;51.050;13.780;2023-04-15T17:59:30;1.92;;;1.05;;
75914;SDS011;64593;51.050;13.780;2023-04-15T18:04:35;2.75;;;1.40;;
75914;SDS011;64593;51.050;13.780;2023-04-15T18:10:02;2.95;;;1.33;;
75914;SDS011;64593;51.050;13.780;2023-04-15T18:15:04;5.95;;;2.65;;
75914;SDS011;64593;51.050;13.780;2023-04-15T18:20:32;6.97;;;3.08;;
75914;SDS011;64593;51.050;13.780;2023-04-15T18:25:36;6.47;;;3.05;;
75914;SDS011;64593;51.050;13.780;2023-04-15T18:30:39;6.82;;;3.40;;
75914;SDS011;64593;51.050;13.780;2023-04-15T18:35:41;6.80;;;2.92;;
75914;SDS011;64593;51.050;13.780;2023-04-15T18:40:49;6.13;;;3.40;;
75914;SDS011;64593;51.050;13.780;2023-04-15T18:46:16;5.07;;;2.90;;
75914;SDS011;64593;51.050;13.780;2023-04-15T18:51:44;5.18;;;2.85;;
75914;SDS011;64593;51.050;13.780;2023-04-15T18:56:46;6.43;;;3.25;;
75914;SDS011;64593;51.050;13.780;2023-04-15T19:02:13;11.18;;;4.95;;
75914;SDS011;64593;51.050;13.780;2023-04-15T19:07:15;9.80;;;5.30;;
75914;SDS011;64593;51.050;13.780;2023-04-15T19:12:42;9.40;;;5.18;;
75914;SDS011;64593;51.050;13.780;2023-04-15T19:18:09;11.10;;;5.63;;
75914;SDS011;64593;51.050;13.780;2023-04-15T19:23:36;7.32;;;4.88;;
75914;SDS011;64593;51.050;13.780;2023-04-15T19:29:08;9.95;;;5.55;;
75914;SDS011;64593;51.050;13.780;2023-04-15T19:34:10;9.35;;;5.60;;
75914;SDS011;64593;51.050;13.780;2023-04-15T19:39:15;10.93;;;5.18;;
75914;SDS011;64593;51.050;13.780;2023-04-15T19:44:45;7.00;;;4.50;;
75914;SDS011;64593;51.050;13.780;2023-04-15T19:49:50;10.13;;;4.80;;
75914;SDS011;64593;51.050;13.780;2023-04-15T19:55:05;7.88;;;4.35;;
75914;SDS011;64593;51.050;13.780;2023-04-15T20:00:42;10.95;;;4.93;;
75914;SDS011;64593;51.050;13.780;2023-04-15T20:05:45;9.27;;;4.90;;
75914;SDS011;64593;51.050;13.780;2023-04-15T20:11:15;8.93;;;4.82;;
75914;SDS011;64593;51.050;13.780;2023-04-15T20:16:42;8.15;;;4.85;;
75914;SDS011;64593;51.050;13.780;2023-04-15T20:21:44;8.85;;;4.97;;
75914;SDS011;64593;51.050;13.780;2023-04-15T20:26:51;9.32;;;5.43;;
75914;SDS011;64593;51.050;13.780;2023-04-15T20:32:18;8.50;;;5.30;;
75914;SDS011;64593;51.050;13.780;2023-04-15T20:37:45;11.40;;;6.05;;
75914;SDS011;64593;51.050;13.780;2023-04-15T20:42:49;9.55;;;5.82;;
75914;SDS011;64593;51.050;13.780;2023-04-15T20:48:20;10.65;;;6.10;;
75914;SDS011;64593;51.050;13.780;2023-04-15T20:53:48;11.00;;;5.28;;
75914;SDS011;64593;51.050;13.780;2023-04-15T20:58:52;9.10;;;5.80;;
75914;SDS011;64593;51.050;13.780;2023-04-15T21:04:19;7.30;;;4.47;;
75914;SDS011;64593;51.050;13.780;2023-04-15T21:09:47;8.10;;;4.38;;
75914;SDS011;64593;51.050;13.780;2023-04-15T21:14:49;7.63;;;4.53;;
75914;SDS011;64593;51.050;13.780;2023-04-15T21:19:54;7.90;;;4.72;;
75914;SDS011;64593;51.050;13.780;2023-04-15T21:25:21;8.93;;;5.57;;
75914;SDS011;64593;51.050;13.780;2023-04-15T21:30:24;8.02;;;4.90;;
75914;SDS011;64593;51.050;13.780;2023-04-15T21:35:26;12.98;;;6.07;;
75914;SDS011;64593;51.050;13.780;2023-04-15T21:40:31;9.98;;;6.07;;
75914;SDS011;64593;51.050;13.780;2023-04-15T21:45:35;8.55;;;5.82;;
75914;SDS011;64593;51.050;13.780;2023-04-15T21:50:40;8.55;;;5.43;;
75914;SDS011;64593;51.050;13.780;2023-04-15T21:55:42;10.10;;;6.38;;
